sensor_id;sensor_type;location;lat;lon;timestamp;P1;durP1;ratioP1;P2;durP2;ratioP2
67100;SDS011;54019;61.746;16.106;2023-02-26T00:01:39;0.57;;;0.10;;
67100;SDS011;54019;61.746;16.106;2023-02-26T00:04:05;0.65;;;0.10;;
67100;SDS011;54019;61.746;16.106;2023-02-26T00:06:34;0.65;;;0.10;;
67100;SDS011;54019;61.746;16.106;2023-02-26T00:09:02;0.82;;;0.20;;
67100;SDS011;54019;61.746;16.106;2023-02-26T00:11:28;1.02;;;0.20;;
67100;SDS011;54019;61.746;16.106;2023-02-26T00:13:55;0.25;;;0.10;;
67100;SDS011;54019;61.746;16.106;2023-02-26T00:16:23;0.38;;;0.10;;
67100;SDS011;54019;61.746;16.106;2023-02-26T00:18:51;0.30;;;0.20;;
67100;SDS011;54019;61.746;16.106;2023-02-26T00:21:18;0.10;;;0.10;;
67100;SDS011;54019;61.746;16.106;2023-02-26T00:23:46;0.20;;;0.20;;
67100;SDS011;54019;61.746;16.106;2023-02-26T00:26:12;0.10;;;0.10;;
67100;SDS011;54019;61.746;16.106;2023-02-26T00:28:39;0.10;;;0.10;;
67100;SDS011;54019;61.746;16.106;2023-02-26T00:31:05;0.17;;;0.10;;
67100;SDS011;54019;61.746;16.106;2023-02-26T00:33:32;0.10;;;0.10;;
67100;SDS011;54019;61.746;16.106;2023-02-26T00:36:00;0.40;;;0.20;;
67100;SDS011;54019;61.746;16.106;2023-02-26T00:38:41;0.10;;;0.10;;
67100;SDS011;54019;61.746;16.106;2023-02-26T00:41:10;0.40;;;0.20;;
67100;SDS011;54019;61.746;16.106;2023-02-26T00:43:36;2.03;;;0.20;;
67100;SDS011;54019;61.746;16.106;2023-02-26T00:46:05;0.13;;;0.10;;
67100;SDS011;54019;61.746;16.106;2023-02-26T00:48:43;0.20;;;0.10;;
67100;SDS011;54019;61.746;16.106;2023-02-26T00:51:16;0.52;;;0.10;;
67100;SDS011;54019;61.746;16.106;2023-02-26T00:53:48;1.50;;;0.20;;
67100;SDS011;54019;61.746;16.106;2023-02-26T00:56:24;0.30;;;0.20;;
67100;SDS011;54019;61.746;16.106;2023-02-26T00:58:50;0.20;;;0.17;;
67100;SDS011;54019;61.746;16.106;2023-02-26T01:01:16;0.30;;;0.10;;
67100;SDS011;54019;61.746;16.106;2023-02-26T01:03:42;0.43;;;0.22;;
67100;SDS011;54019;61.746;16.106;2023-02-26T01:06:09;0.20;;;0.10;;
67100;SDS011;54019;61.746;16.106;2023-02-26T01:08:37;0.10;;;0.10;;
67100;SDS011;54019;61.746;16.106;2023-02-26T01:11:07;1.23;;;0.17;;
67100;SDS011;54019;61.746;16.106;2023-02-26T01:13:35;0.32;;;0.10;;
67100;SDS011;54019;61.746;16.106;2023-02-26T01:16:02;0.70;;;0.20;;
67100;SDS011;54019;61.746;16.106;2023-02-26T01:18:35;0.10;;;0.10;;
67100;SDS011;54019;61.746;16.106;2023-02-26T01:21:07;0.32;;;0.10;;
67100;SDS011;54019;61.746;16.106;2023-02-26T01:23:39;0.10;;;0.10;;
67100;SDS011;54019;61.746;16.106;2023-02-26T01:26:10;0.10;;;0.10;;
67100;SDS011;54019;61.746;16.106;2023-02-26T01:28:43;0.30;;;0.10;;
67100;SDS011;54019;61.746;16.106;2023-02-26T01:31:10;0.10;;;0.10;;
67100;SDS011;54019;61.746;16.106;2023-02-26T01:33:46;0.20;;;0.10;;
67100;SDS011;54019;61.746;16.106;2023-02-26T01:36:16;0.25;;;0.10;;
67100;SDS011;54019;61.746;16.106;2023-02-26T01:38:48;0.10;;;0.10;;
67100;SDS011;54019;61.746;16.106;2023-02-26T01:41:23;0.10;;;0.10;;
67100;SDS011;54019;61.746;16.106;2023-02-26T01:44:05;0.38;;;0.10;;
67100;SDS011;54019;61.746;16.106;2023-02-26T01:46:43;0.80;;;0.20;;
67100;SDS011;54019;61.746;16.106;2023-02-26T01:49:18;1.67;;;0.10;;
67100;SDS011;54019;61.746;16.106;2023-02-26T01:51:49;0.10;;;0.10;;
67100;SDS011;54019;61.746;16.106;2023-02-26T01:54:17;0.15;;;0.10;;
67100;SDS011;54019;61.746;16.106;2023-02-26T01:56:44;0.10;;;0.10;;
67100;SDS011;54019;61.746;16.106;2023-02-26T01:59:15;0.10;;;0.10;;
67100;SDS011;54019;61.746;16.106;2023-02-26T02:01:43;0.10;;;0.10;;
67100;SDS011;54019;61.746;16.106;2023-02-26T02:04:09;0.10;;;0.10;;
67100;SDS011;54019;61.746;16.106;2023-02-26T02:06:38;0.77;;;0.10;;
67100;SDS011;54019;61.746;16.106;2023-02-26T02:09:05;0.22;;;0.10;;
67100;SDS011;54019;61.746;16.106;2023-02-26T02:11:32;0.85;;;0.20;;
67100;SDS011;54019;61.746;16.106;2023-02-26T02:14:00;0.22;;;0.10;;
67100;SDS011;54019;61.746;16.106;2023-02-26T02:16:38;0.10;;;0.10;;
67100;SDS011;54019;61.746;16.106;2023-02-26T02:19:17;0.30;;;0.13;;
67100;SDS011;54019;61.746;16.106;2023-02-26T02:22:01;0.38;;;0.15;;
67100;SDS011;54019;61.746;16.106;2023-02-26T02:24:47;0.00;;;0.00;;
67100;SDS011;54019;61.746;16.106;2023-02-26T02:27:28;0.13;;;0.13;;
67100;SDS011;54019;61.746;16.106;2023-02-26T02:30:06;0.28;;;0.10;;
67100;SDS011;54019;61.746;16.106;2023-02-26T02:32:48;0.10;;;0.10;;
67100;SDS011;54019;61.746;16.106;2023-02-26T02:35:17;0.30;;;0.20;;
67100;SDS011;54019;61.746;16.106;2023-02-26T02:37:50;0.22;;;0.15;;
67100;SDS011;54019;61.746;16.106;2023-02-26T02:40:22;0.20;;;0.20;;
67100;SDS011;54019;61.746;16.106;2023-02-26T02:42:54;0.10;;;0.10;;
67100;SDS011;54019;61.746;16.106;2023-02-26T02:45:23;0.20;;;0.10;;
67100;SDS011;54019;61.746;16.106;2023-02-26T02:47:54;0.13;;;0.10;;
67100;SDS011;54019;61.746;16.106;2023-02-26T02:50:26;0.08;;;0.08;;
67100;SDS011;54019;61.746;16.106;2023-02-26T02:52:56;0.43;;;0.10;;
67100;SDS011;54019;61.746;16.106;2023-02-26T02:55:26;0.20;;;0.13;;
67100;SDS011;54019;61.746;16.106;2023-02-26T02:57:55;0.13;;;0.10;;
67100;SDS011;54019;61.746;16.106;2023-02-26T03:00:23;0.10;;;0.10;;
67100;SDS011;54019;61.746;16.106;2023-02-26T03:02:56;0.43;;;0.20;;
67100;SDS011;54019;61.746;16.106;2023-02-26T03:05:24;0.20;;;0.20;;
67100;SDS011;54019;61.746;16.106;2023-02-26T03:07:52;0.10;;;0.10;;
67100;SDS011;54019;61.746;16.106;2023-02-26T03:10:20;0.30;;;0.10;;
67100;SDS011;54019;61.746;16.106;2023-02-26T03:12:46;0.10;;;0.10;;
67100;SDS011;54019;61.746;16.106;2023-02-26T03:15:12;0.10;;;0.10;;
67100;SDS011;54019;61.746;16.106;2023-02-26T03:17:42;0.38;;;0.10;;
67100;SDS011;54019;61.746;16.106;2023-02-26T03:20:17;0.45;;;0.10;;
67100;SDS011;54019;61.746;16.106;2023-02-26T03:22:50;0.10;;;0.10;;
67100;SDS011;54019;61.746;16.106;2023-02-26T03:25:26;0.10;;;0.10;;
67100;SDS011;54019;61.746;16.106;2023-02-26T03:27:56;0.52;;;0.17;;
67100;SDS011;54019;61.746;16.106;2023-02-26T03:30:31;0.10;;;0.10;;
67100;SDS011;54019;61.746;16.106;2023-02-26T03:33:02;0.57;;;0.10;;
67100;SDS011;54019;61.746;16.106;2023-02-26T03:35:37;0.10;;;0.10;;
67100;SDS011;54019;61.746;16.106;2023-02-26T03:38:13;0.10;;;0.10;;
67100;SDS011;54019;61.746;16.106;2023-02-26T03:40:46;0.13;;;0.10;;
67100;SDS011;54019;61.746;16.106;2023-02-26T03:43:17;0.10;;;0.10;;
67100;SDS011;54019;61.746;16.106;2023-02-26T03:45:47;0.10;;;0.10;;
67100;SDS011;54019;61.746;16.106;2023-02-26T03:48:16;0.20;;;0.10;;
67100;SDS011;54019;61.746;16.106;2023-02-26T03:50:49;0.15;;;0.10;;
67100;SDS011;54019;61.746;16.106;2023-02-26T03:53:18;0.40;;;0.10;;
67100;SDS011;54019;61.746;16.106;2023-02-26T03:55:49;0.10;;;0.10;;
67100;SDS011;54019;61.746;16.106;2023-02-26T03:58:19;0.28;;;0.13;;
67100;SDS011;54019;61.746;16.106;2023-02-26T04:00:46;0.28;;;0.20;;
67100;SDS011;54019;61.746;16.106;2023-02-26T04:03:18;0.15;;;0.10;;
67100;SDS011;54019;61.746;16.106;2023-02-26T04:05:49;0.10;;;0.10;;
67100;SDS011;54019;61.746;16.106;2023-02-26T04:08:17;0.10;;;0.10;;
67100;SDS011;54019;61.746;16.106;2023-02-26T04:10:51;0.10;;;0.10;;
67100;SDS011;54019;61.746;16.106;2023-02-26T04:13:20;0.43;;;0.25;;
67100;SDS011;54019;61.746;16.106;2023-02-26T04:15:46;0.77;;;0.10;;
67100;SDS011;54019;61.746;16.106;2023-02-26T04:18:12;0.10;;;0.10;;
67100;SDS011;54019;61.746;16.106;2023-02-26T04:20:38;0.10;;;0.10;;
67100;SDS011;54019;61.746;16.106;2023-02-26T04:23:05;0.10;;;0.10;;
67100;SDS011;54019;61.746;16.106;2023-02-26T04:25:31;0.13;;;0.10;;
67100;SDS011;54019;61.746;16.106;2023-02-26T04:27:56;0.50;;;0.20;;
67100;SDS011;54019;61.746;16.106;2023-02-26T04:30:22;0.45;;;0.10;;
67100;SDS011;54019;61.746;16.106;2023-02-26T04:32:48;0.38;;;0.10;;
67100;SDS011;54019;61.746;16.106;2023-02-26T04:35:14;0.10;;;0.10;;
67100;SDS011;54019;61.746;16.106;2023-02-26T04:37:40;0.45;;;0.20;;
67100;SDS011;54019;61.746;16.106;2023-02-26T04:40:08;0.10;;;0.10;;
67100;SDS011;54019;61.746;16.106;2023-02-26T04:42:35;0.13;;;0.13;;
67100;SDS011;54019;61.746;16.106;2023-02-26T04:45:00;0.10;;;0.10;;
67100;SDS011;54019;61.746;16.106;2023-02-26T04:47:26;0.10;;;0.10;;
67100;SDS011;54019;61.746;16.106;2023-02-26T04:49:52;0.13;;;0.13;;
67100;SDS011;54019;61.746;16.106;2023-02-26T04:52:18;1.55;;;0.10;;
67100;SDS011;54019;61.746;16.106;2023-02-26T04:54:44;2.40;;;0.40;;
67100;SDS011;54019;61.746;16.106;2023-02-26T04:57:11;0.50;;;0.20;;
67100;SDS011;54019;61.746;16.106;2023-02-26T04:59:37;0.15;;;0.10;;
67100;SDS011;54019;61.746;16.106;2023-02-26T05:02:03;0.30;;;0.20;;
67100;SDS011;54019;61.746;16.106;2023-02-26T05:04:29;0.25;;;0.13;;
67100;SDS011;54019;61.746;16.106;2023-02-26T05:06:54;1.50;;;0.20;;
67100;SDS011;54019;61.746;16.106;2023-02-26T05:09:20;0.22;;;0.15;;
67100;SDS011;54019;61.746;16.106;2023-02-26T05:11:46;2.00;;;0.15;;
67100;SDS011;54019;61.746;16.106;2023-02-26T05:14:13;3.15;;;0.40;;
67100;SDS011;54019;61.746;16.106;2023-02-26T05:16:39;1.30;;;0.55;;
67100;SDS011;54019;61.746;16.106;2023-02-26T05:19:05;0.57;;;0.30;;
67100;SDS011;54019;61.746;16.106;2023-02-26T05:21:31;1.00;;;0.40;;
67100;SDS011;54019;61.746;16.106;2023-02-26T05:23:56;1.02;;;0.28;;
67100;SDS011;54019;61.746;16.106;2023-02-26T05:26:22;0.65;;;0.40;;
67100;SDS011;54019;61.746;16.106;2023-02-26T05:28:48;3.38;;;0.43;;
67100;SDS011;54019;61.746;16.106;2023-02-26T05:31:15;0.50;;;0.30;;
67100;SDS011;54019;61.746;16.106;2023-02-26T05:33:41;1.20;;;0.35;;
67100;SDS011;54019;61.746;16.106;2023-02-26T05:36:07;0.70;;;0.30;;
67100;SDS011;54019;61.746;16.106;2023-02-26T05:38:33;1.85;;;0.30;;
67100;SDS011;54019;61.746;16.106;2023-02-26T05:40:59;1.10;;;0.25;;
67100;SDS011;54019;61.746;16.106;2023-02-26T05:43:26;0.25;;;0.17;;
67100;SDS011;54019;61.746;16.106;2023-02-26T05:45:52;0.47;;;0.10;;
67100;SDS011;54019;61.746;16.106;2023-02-26T05:48:19;0.32;;;0.20;;
67100;SDS011;54019;61.746;16.106;2023-02-26T05:50:46;1.17;;;0.30;;
67100;SDS011;54019;61.746;16.106;2023-02-26T05:53:13;0.68;;;0.20;;
67100;SDS011;54019;61.746;16.106;2023-02-26T05:55:38;4.28;;;0.30;;
67100;SDS011;54019;61.746;16.106;2023-02-26T05:58:04;0.30;;;0.20;;
67100;SDS011;54019;61.746;16.106;2023-02-26T06:00:30;1.75;;;0.20;;
67100;SDS011;54019;61.746;16.106;2023-02-26T06:02:56;0.70;;;0.30;;
67100;SDS011;54019;61.746;16.106;2023-02-26T06:05:23;0.68;;;0.20;;
67100;SDS011;54019;61.746;16.106;2023-02-26T06:07:49;1.05;;;0.10;;
67100;SDS011;54019;61.746;16.106;2023-02-26T06:10:14;1.10;;;0.32;;
67100;SDS011;54019;61.746;16.106;2023-02-26T06:12:40;0.98;;;0.17;;
67100;SDS011;54019;61.746;16.106;2023-02-26T06:15:07;2.38;;;0.20;;
67100;SDS011;54019;61.746;16.106;2023-02-26T06:17:33;0.28;;;0.17;;
67100;SDS011;54019;61.746;16.106;2023-02-26T06:19:59;0.50;;;0.13;;
67100;SDS011;54019;61.746;16.106;2023-02-26T06:22:27;0.70;;;0.20;;
67100;SDS011;54019;61.746;16.106;2023-02-26T06:24:52;0.45;;;0.20;;
67100;SDS011;54019;61.746;16.106;2023-02-26T06:27:18;0.52;;;0.30;;
67100;SDS011;54019;61.746;16.106;2023-02-26T06:29:44;0.20;;;0.20;;
67100;SDS011;54019;61.746;16.106;2023-02-26T06:32:10;0.10;;;0.10;;
67100;SDS011;54019;61.746;16.106;2023-02-26T06:34:35;0.85;;;0.30;;
67100;SDS011;54019;61.746;16.106;2023-02-26T06:37:01;0.20;;;0.20;;
67100;SDS011;54019;61.746;16.106;2023-02-26T06:39:28;0.52;;;0.10;;
67100;SDS011;54019;61.746;16.106;2023-02-26T06:41:54;1.63;;;0.20;;
67100;SDS011;54019;61.746;16.106;2023-02-26T06:44:20;0.52;;;0.17;;
67100;SDS011;54019;61.746;16.106;2023-02-26T06:46:46;1.45;;;0.13;;
67100;SDS011;54019;61.746;16.106;2023-02-26T06:49:11;0.20;;;0.20;;
67100;SDS011;54019;61.746;16.106;2023-02-26T06:51:37;1.15;;;0.20;;
67100;SDS011;54019;61.746;16.106;2023-02-26T06:54:03;2.75;;;0.22;;
67100;SDS011;54019;61.746;16.106;2023-02-26T06:56:30;1.17;;;0.20;;
67100;SDS011;54019;61.746;16.106;2023-02-26T06:58:56;0.40;;;0.15;;
67100;SDS011;54019;61.746;16.106;2023-02-26T07:01:22;1.23;;;0.20;;
67100;SDS011;54019;61.746;16.106;2023-02-26T07:03:48;0.90;;;0.52;;
67100;SDS011;54019;61.746;16.106;2023-02-26T07:06:13;0.70;;;0.28;;
67100;SDS011;54019;61.746;16.106;2023-02-26T07:08:40;2.05;;;0.30;;
67100;SDS011;54019;61.746;16.106;2023-02-26T07:11:06;1.25;;;0.25;;
67100;SDS011;54019;61.746;16.106;2023-02-26T07:13:33;0.60;;;0.20;;
67100;SDS011;54019;61.746;16.106;2023-02-26T07:15:59;0.73;;;0.20;;
67100;SDS011;54019;61.746;16.106;2023-02-26T07:18:24;0.30;;;0.20;;
67100;SDS011;54019;61.746;16.106;2023-02-26T07:20:50;2.33;;;0.50;;
67100;SDS011;54019;61.746;16.106;2023-02-26T07:23:16;3.45;;;0.30;;
67100;SDS011;54019;61.746;16.106;2023-02-26T07:25:42;3.60;;;0.38;;
67100;SDS011;54019;61.746;16.106;2023-02-26T07:28:08;4.57;;;0.30;;
67100;SDS011;54019;61.746;16.106;2023-02-26T07:30:35;2.05;;;0.20;;
67100;SDS011;54019;61.746;16.106;2023-02-26T07:33:00;4.18;;;0.30;;
67100;SDS011;54019;61.746;16.106;2023-02-26T07:35:26;1.75;;;0.30;;
67100;SDS011;54019;61.746;16.106;2023-02-26T07:37:52;1.05;;;0.20;;
67100;SDS011;54019;61.746;16.106;2023-02-26T07:40:18;0.80;;;0.40;;
67100;SDS011;54019;61.746;16.106;2023-02-26T07:42:44;2.92;;;0.30;;
67100;SDS011;54019;61.746;16.106;2023-02-26T07:45:09;0.95;;;0.28;;
67100;SDS011;54019;61.746;16.106;2023-02-26T07:47:37;0.47;;;0.30;;
67100;SDS011;54019;61.746;16.106;2023-02-26T07:50:03;1.42;;;0.20;;
67100;SDS011;54019;61.746;16.106;2023-02-26T07:52:29;18.17;;;0.50;;
67100;SDS011;54019;61.746;16.106;2023-02-26T07:54:55;1.80;;;0.20;;
67100;SDS011;54019;61.746;16.106;2023-02-26T07:57:21;1.65;;;0.20;;
67100;SDS011;54019;61.746;16.106;2023-02-26T07:59:47;0.47;;;0.28;;
67100;SDS011;54019;61.746;16.106;2023-02-26T08:02:12;0.32;;;0.20;;
67100;SDS011;54019;61.746;16.106;2023-02-26T08:04:40;1.05;;;0.22;;
67100;SDS011;54019;61.746;16.106;2023-02-26T08:07:05;0.47;;;0.40;;
67100;SDS011;54019;61.746;16.106;2023-02-26T08:09:31;1.05;;;0.30;;
67100;SDS011;54019;61.746;16.106;2023-02-26T08:11:57;1.00;;;0.38;;
67100;SDS011;54019;61.746;16.106;2023-02-26T08:14:23;0.30;;;0.30;;
67100;SDS011;54019;61.746;16.106;2023-02-26T08:16:48;0.50;;;0.20;;
67100;SDS011;54019;61.746;16.106;2023-02-26T08:19:14;1.65;;;0.28;;
67100;SDS011;54019;61.746;16.106;2023-02-26T08:21:41;0.65;;;0.40;;
67100;SDS011;54019;61.746;16.106;2023-02-26T08:24:09;1.38;;;0.20;;
67100;SDS011;54019;61.746;16.106;2023-02-26T08:26:35;1.52;;;0.30;;
67100;SDS011;54019;61.746;16.106;2023-02-26T08:29:01;1.25;;;0.30;;
67100;SDS011;54019;61.746;16.106;2023-02-26T08:31:28;0.63;;;0.28;;
67100;SDS011;54019;61.746;16.106;2023-02-26T08:33:54;0.32;;;0.20;;
67100;SDS011;54019;61.746;16.106;2023-02-26T08:36:19;0.20;;;0.20;;
67100;SDS011;54019;61.746;16.106;2023-02-26T08:38:46;1.38;;;0.25;;
67100;SDS011;54019;61.746;16.106;2023-02-26T08:41:12;0.63;;;0.35;;
67100;SDS011;54019;61.746;16.106;2023-02-26T08:43:38;2.45;;;0.30;;
67100;SDS011;54019;61.746;16.106;2023-02-26T08:46:04;0.82;;;0.30;;
67100;SDS011;54019;61.746;16.106;2023-02-26T08:48:30;0.68;;;0.30;;
67100;SDS011;54019;61.746;16.106;2023-02-26T08:50:56;0.43;;;0.20;;
67100;SDS011;54019;61.746;16.106;2023-02-26T08:53:21;1.08;;;0.30;;
67100;SDS011;54019;61.746;16.106;2023-02-26T08:55:49;1.70;;;0.30;;
67100;SDS011;54019;61.746;16.106;2023-02-26T08:58:16;3.80;;;0.20;;
67100;SDS011;54019;61.746;16.106;2023-02-26T09:00:42;0.75;;;0.30;;
67100;SDS011;54019;61.746;16.106;2023-02-26T09:03:08;1.85;;;0.20;;
67100;SDS011;54019;61.746;16.106;2023-02-26T09:05:34;0.77;;;0.35;;
67100;SDS011;54019;61.746;16.106;2023-02-26T09:07:59;0.65;;;0.30;;
67100;SDS011;54019;61.746;16.106;2023-02-26T09:10:25;0.35;;;0.28;;
67100;SDS011;54019;61.746;16.106;2023-02-26T09:12:52;1.17;;;0.40;;
67100;SDS011;54019;61.746;16.106;2023-02-26T09:15:18;0.80;;;0.30;;
67100;SDS011;54019;61.746;16.106;2023-02-26T09:17:44;0.20;;;0.20;;
67100;SDS011;54019;61.746;16.106;2023-02-26T09:20:11;4.90;;;0.40;;
67100;SDS011;54019;61.746;16.106;2023-02-26T09:22:37;0.52;;;0.25;;
67100;SDS011;54019;61.746;16.106;2023-02-26T09:25:04;0.50;;;0.30;;
67100;SDS011;54019;61.746;16.106;2023-02-26T09:27:31;0.70;;;0.35;;
67100;SDS011;54019;61.746;16.106;2023-02-26T09:29:58;0.93;;;0.50;;
67100;SDS011;54019;61.746;16.106;2023-02-26T09:32:24;0.88;;;0.30;;
67100;SDS011;54019;61.746;16.106;2023-02-26T09:34:49;3.17;;;0.30;;
67100;SDS011;54019;61.746;16.106;2023-02-26T09:37:15;2.38;;;0.40;;
67100;SDS011;54019;61.746;16.106;2023-02-26T09:39:41;1.13;;;0.30;;
67100;SDS011;54019;61.746;16.106;2023-02-26T09:42:09;0.60;;;0.35;;
67100;SDS011;54019;61.746;16.106;2023-02-26T09:44:44;0.40;;;0.20;;
67100;SDS011;54019;61.746;16.106;2023-02-26T09:47:14;1.25;;;0.30;;
67100;SDS011;54019;61.746;16.106;2023-02-26T09:49:46;0.38;;;0.20;;
67100;SDS011;54019;61.746;16.106;2023-02-26T09:52:20;1.30;;;0.30;;
67100;SDS011;54019;61.746;16.106;2023-02-26T09:54:50;1.13;;;0.40;;
67100;SDS011;54019;61.746;16.106;2023-02-26T09:57:20;1.13;;;0.30;;
67100;SDS011;54019;61.746;16.106;2023-02-26T09:59:51;0.82;;;0.38;;
67100;SDS011;54019;61.746;16.106;2023-02-26T10:02:19;1.45;;;0.50;;
67100;SDS011;54019;61.746;16.106;2023-02-26T10:04:55;0.52;;;0.22;;
67100;SDS011;54019;61.746;16.106;2023-02-26T10:07:30;0.70;;;0.20;;
67100;SDS011;54019;61.746;16.106;2023-02-26T10:10:15;1.88;;;0.40;;
67100;SDS011;54019;61.746;16.106;2023-02-26T10:12:46;0.35;;;0.20;;
67100;SDS011;54019;61.746;16.106;2023-02-26T10:15:15;1.40;;;0.35;;
67100;SDS011;54019;61.746;16.106;2023-02-26T10:17:51;2.70;;;0.30;;
67100;SDS011;54019;61.746;16.106;2023-02-26T10:20:29;3.42;;;0.38;;
67100;SDS011;54019;61.746;16.106;2023-02-26T10:22:59;3.05;;;0.40;;
67100;SDS011;54019;61.746;16.106;2023-02-26T10:25:30;0.60;;;0.30;;
67100;SDS011;54019;61.746;16.106;2023-02-26T10:28:00;1.35;;;0.52;;
67100;SDS011;54019;61.746;16.106;2023-02-26T10:30:36;2.67;;;0.50;;
67100;SDS011;54019;61.746;16.106;2023-02-26T10:33:10;4.20;;;1.25;;
67100;SDS011;54019;61.746;16.106;2023-02-26T10:35:41;6.35;;;3.30;;
67100;SDS011;54019;61.746;16.106;2023-02-26T10:38:15;4.93;;;2.22;;
67100;SDS011;54019;61.746;16.106;2023-02-26T10:40:46;3.38;;;2.03;;
67100;SDS011;54019;61.746;16.106;2023-02-26T10:43:15;2.40;;;1.08;;
67100;SDS011;54019;61.746;16.106;2023-02-26T10:45:48;3.75;;;1.30;;
67100;SDS011;54019;61.746;16.106;2023-02-26T10:48:34;2.85;;;1.10;;
67100;SDS011;54019;61.746;16.106;2023-02-26T10:51:11;2.53;;;1.00;;
67100;SDS011;54019;61.746;16.106;2023-02-26T10:53:37;1.95;;;0.82;;
67100;SDS011;54019;61.746;16.106;2023-02-26T10:56:07;1.95;;;0.90;;
67100;SDS011;54019;61.746;16.106;2023-02-26T10:58:37;1.98;;;0.70;;
67100;SDS011;54019;61.746;16.106;2023-02-26T11:01:03;3.15;;;0.63;;
67100;SDS011;54019;61.746;16.106;2023-02-26T11:03:39;1.48;;;0.73;;
67100;SDS011;54019;61.746;16.106;2023-02-26T11:06:07;2.33;;;0.77;;
67100;SDS011;54019;61.746;16.106;2023-02-26T11:08:37;2.10;;;0.65;;
67100;SDS011;54019;61.746;16.106;2023-02-26T11:11:06;4.22;;;0.70;;
67100;SDS011;54019;61.746;16.106;2023-02-26T11:13:33;3.65;;;0.60;;
67100;SDS011;54019;61.746;16.106;2023-02-26T11:16:02;3.22;;;0.80;;
67100;SDS011;54019;61.746;16.106;2023-02-26T11:18:31;4.53;;;0.60;;
67100;SDS011;54019;61.746;16.106;2023-02-26T11:21:06;1.70;;;0.60;;
67100;SDS011;54019;61.746;16.106;2023-02-26T11:23:33;6.55;;;0.90;;
67100;SDS011;54019;61.746;16.106;2023-02-26T11:26:00;3.90;;;0.73;;
67100;SDS011;54019;61.746;16.106;2023-02-26T11:28:30;3.80;;;0.90;;
67100;SDS011;54019;61.746;16.106;2023-02-26T11:30:59;4.22;;;0.90;;
67100;SDS011;54019;61.746;16.106;2023-02-26T11:33:32;6.32;;;0.80;;
67100;SDS011;54019;61.746;16.106;2023-02-26T11:36:02;3.30;;;1.00;;
67100;SDS011;54019;61.746;16.106;2023-02-26T11:38:33;6.90;;;0.98;;
67100;SDS011;54019;61.746;16.106;2023-02-26T11:41:00;4.88;;;0.63;;
67100;SDS011;54019;61.746;16.106;2023-02-26T11:43:33;5.30;;;1.20;;
67100;SDS011;54019;61.746;16.106;2023-02-26T11:46:01;5.28;;;0.80;;
67100;SDS011;54019;61.746;16.106;2023-02-26T11:48:37;3.55;;;0.82;;
67100;SDS011;54019;61.746;16.106;2023-02-26T11:51:07;3.88;;;0.80;;
67100;SDS011;54019;61.746;16.106;2023-02-26T11:53:40;3.60;;;0.90;;
67100;SDS011;54019;61.746;16.106;2023-02-26T11:56:12;2.42;;;0.70;;
67100;SDS011;54019;61.746;16.106;2023-02-26T11:58:39;4.25;;;0.63;;
67100;SDS011;54019;61.746;16.106;2023-02-26T12:01:10;3.75;;;0.80;;
67100;SDS011;54019;61.746;16.106;2023-02-26T12:03:38;5.38;;;0.80;;
67100;SDS011;54019;61.746;16.106;2023-02-26T12:06:11;3.05;;;0.60;;
67100;SDS011;54019;61.746;16.106;2023-02-26T12:08:41;3.55;;;0.70;;
67100;SDS011;54019;61.746;16.106;2023-02-26T12:11:21;2.83;;;0.70;;
67100;SDS011;54019;61.746;16.106;2023-02-26T12:14:13;5.18;;;0.65;;
67100;SDS011;54019;61.746;16.106;2023-02-26T12:16:54;2.78;;;0.80;;
67100;SDS011;54019;61.746;16.106;2023-02-26T12:19:30;3.85;;;0.90;;
67100;SDS011;54019;61.746;16.106;2023-02-26T12:22:08;1.40;;;0.50;;
67100;SDS011;54019;61.746;16.106;2023-02-26T12:25:11;1.35;;;0.40;;
67100;SDS011;54019;61.746;16.106;2023-02-26T12:27:53;2.10;;;0.50;;
67100;SDS011;54019;61.746;16.106;2023-02-26T12:33:36;2.20;;;0.63;;
67100;SDS011;54019;61.746;16.106;2023-02-26T12:36:20;2.78;;;0.50;;
67100;SDS011;54019;61.746;16.106;2023-02-26T12:38:56;0.93;;;0.40;;
67100;SDS011;54019;61.746;16.106;2023-02-26T12:41:39;2.88;;;0.82;;
67100;SDS011;54019;61.746;16.106;2023-02-26T12:44:27;0.75;;;0.40;;
67100;SDS011;54019;61.746;16.106;2023-02-26T12:47:14;1.75;;;0.50;;
67100;SDS011;54019;61.746;16.106;2023-02-26T12:52:46;1.67;;;0.40;;
67100;SDS011;54019;61.746;16.106;2023-02-26T12:55:25;1.80;;;0.40;;
67100;SDS011;54019;61.746;16.106;2023-02-26T12:58:03;1.98;;;0.40;;
67100;SDS011;54019;61.746;16.106;2023-02-26T13:00:56;1.77;;;0.50;;
67100;SDS011;54019;61.746;16.106;2023-02-26T13:03:41;2.92;;;0.50;;
67100;SDS011;54019;61.746;16.106;2023-02-26T13:06:21;1.48;;;0.60;;
67100;SDS011;54019;61.746;16.106;2023-02-26T13:09:00;1.30;;;0.50;;
67100;SDS011;54019;61.746;16.106;2023-02-26T13:11:34;1.98;;;0.63;;
67100;SDS011;54019;61.746;16.106;2023-02-26T13:16:46;1.38;;;0.43;;
67100;SDS011;54019;61.746;16.106;2023-02-26T13:19:19;0.98;;;0.40;;
67100;SDS011;54019;61.746;16.106;2023-02-26T13:21:52;0.88;;;0.32;;
67100;SDS011;54019;61.746;16.106;2023-02-26T13:24:22;1.10;;;0.30;;
67100;SDS011;54019;61.746;16.106;2023-02-26T13:26:53;1.90;;;0.40;;
67100;SDS011;54019;61.746;16.106;2023-02-26T13:29:20;0.73;;;0.30;;
67100;SDS011;54019;61.746;16.106;2023-02-26T13:31:49;0.50;;;0.22;;
67100;SDS011;54019;61.746;16.106;2023-02-26T13:34:20;0.65;;;0.30;;
67100;SDS011;54019;61.746;16.106;2023-02-26T13:36:50;0.68;;;0.30;;
67100;SDS011;54019;61.746;16.106;2023-02-26T13:39:22;0.73;;;0.30;;
67100;SDS011;54019;61.746;16.106;2023-02-26T13:42:20;0.73;;;0.32;;
67100;SDS011;54019;61.746;16.106;2023-02-26T13:44:56;1.10;;;0.30;;
67100;SDS011;54019;61.746;16.106;2023-02-26T13:47:42;1.70;;;0.32;;
67100;SDS011;54019;61.746;16.106;2023-02-26T13:50:22;0.30;;;0.20;;
67100;SDS011;54019;61.746;16.106;2023-02-26T13:52:55;2.92;;;0.30;;
67100;SDS011;54019;61.746;16.106;2023-02-26T13:55:41;0.45;;;0.20;;
67100;SDS011;54019;61.746;16.106;2023-02-26T14:00:59;0.68;;;0.20;;
67100;SDS011;54019;61.746;16.106;2023-02-26T14:09:02;0.43;;;0.30;;
67100;SDS011;54019;61.746;16.106;2023-02-26T14:11:36;0.70;;;0.40;;
67100;SDS011;54019;61.746;16.106;2023-02-26T14:14:12;0.65;;;0.30;;
67100;SDS011;54019;61.746;16.106;2023-02-26T14:16:42;0.40;;;0.20;;
67100;SDS011;54019;61.746;16.106;2023-02-26T14:19:19;0.25;;;0.20;;
67100;SDS011;54019;61.746;16.106;2023-02-26T14:21:52;0.50;;;0.30;;
67100;SDS011;54019;61.746;16.106;2023-02-26T14:24:21;0.98;;;0.20;;
67100;SDS011;54019;61.746;16.106;2023-02-26T14:27:02;0.80;;;0.20;;
67100;SDS011;54019;61.746;16.106;2023-02-26T14:29:39;0.40;;;0.20;;
67100;SDS011;54019;61.746;16.106;2023-02-26T14:32:13;0.22;;;0.20;;
67100;SDS011;54019;61.746;16.106;2023-02-26T14:34:44;0.20;;;0.17;;
67100;SDS011;54019;61.746;16.106;2023-02-26T14:37:14;0.25;;;0.20;;
67100;SDS011;54019;61.746;16.106;2023-02-26T14:39:44;0.13;;;0.10;;
67100;SDS011;54019;61.746;16.106;2023-02-26T14:42:14;0.20;;;0.10;;
67100;SDS011;54019;61.746;16.106;2023-02-26T14:44:47;0.10;;;0.10;;
67100;SDS011;54019;61.746;16.106;2023-02-26T14:47:14;0.30;;;0.15;;
67100;SDS011;54019;61.746;16.106;2023-02-26T14:49:43;0.20;;;0.20;;
67100;SDS011;54019;61.746;16.106;2023-02-26T14:52:18;0.32;;;0.10;;
67100;SDS011;54019;61.746;16.106;2023-02-26T14:57:49;0.10;;;0.10;;
67100;SDS011;54019;61.746;16.106;2023-02-26T15:00:28;0.10;;;0.10;;
67100;SDS011;54019;61.746;16.106;2023-02-26T15:03:09;0.40;;;0.20;;
67100;SDS011;54019;61.746;16.106;2023-02-26T15:05:59;0.38;;;0.20;;
67100;SDS011;54019;61.746;16.106;2023-02-26T15:08:41;0.40;;;0.20;;
67100;SDS011;54019;61.746;16.106;2023-02-26T15:11:19;0.20;;;0.10;;